Ilona — ZCTE3 — position and weather

sailwx.info

Track history (hours):
 
Tides and Currents Weather Stations Pressure Air Temp Water Temp Dewpoint Dewpoint Depression Visibility Wind Speed Wind Dir Waves Ship Positions

Ilona

Last reported at 2014-Aug-21 01:33 UTC. Time now 2014-Aug-21 02:28 UTC.
Position N 43°43' E 007°25'.

Length 37 m.

Type: Pleasure craft. MMSI: 319864000.

Date/timePositionNaut miles runAvg speedWind from/ knotsBaromVisibWave heightAir tempDewpointWater temp
2014-Aug-21 01:33N 43°43' E 007°25'0 0.0
2014-Aug-21 00:31N 43°43' E 007°25'0 0.0
2014-Aug-20 23:32N 43°43' E 007°25'0 0.0
2014-Aug-20 22:33N 43°43' E 007°25'0 0.0
2014-Aug-20 21:28N 43°43' E 007°25'0 0.0
2014-Aug-20 20:06N 43°43' E 007°25'916.5
2014-Aug-20 19:34N 43°37' E 007°16'12 9.7
2014-Aug-20 18:22N 43°33' E 007°01'0 0.0
2014-Aug-20 17:25N 43°33' E 007°01'0 0.0
2014-Aug-20 16:31N 43°33' E 007°01'0 0.0
2014-Aug-20 15:22N 43°33' E 007°01'1 1.2
2014-Aug-20 14:33N 43°32' E 007°02'1 1.0
2014-Aug-20 13:33N 43°32' E 007°03'0 0.0
2014-Aug-20 12:33N 43°32' E 007°03'6 5.9
2014-Aug-20 11:33N 43°35' E 007°09'8 8.1
2014-Aug-20 10:33N 43°40' E 007°18'6 5.5
2014-Aug-20 09:29N 43°43' E 007°25'0 0.0
2014-Aug-20 08:23N 43°43' E 007°25'0 0.0
2014-Aug-20 07:23N 43°43' E 007°25'0 0.0
2014-Aug-20 06:17N 43°43' E 007°25'0 0.0
2014-Aug-20 05:23N 43°43' E 007°25'0 0.0
2014-Aug-20 04:29N 43°43' E 007°25'0 0.0
2014-Aug-20 03:29N 43°43' E 007°25'0 0.0
2014-Aug-20 02:29N 43°43' E 007°25'0 0.0
2014-Aug-20 01:29N 43°43' E 007°25'0 0.0
2014-Aug-20 00:29N 43°43' E 007°25'0 0.0
2014-Aug-19 23:29N 43°43' E 007°25'0 0.0
2014-Aug-19 22:29N 43°43' E 007°25'0 0.0
2014-Aug-19 21:29N 43°43' E 007°25'0 0.0
2014-Aug-19 20:29N 43°43' E 007°25'0 0.0
2014-Aug-19 19:29N 43°43' E 007°25'0 0.0
2014-Aug-19 18:23N 43°43' E 007°25'0 0.0
2014-Aug-19 17:29N 43°43' E 007°25'0 0.0
2014-Aug-19 16:29N 43°43' E 007°25'0 0.0
2014-Aug-19 15:17N 43°43' E 007°25'0 0.0
2014-Aug-19 14:23N 43°43' E 007°25'0 0.0
2014-Aug-19 13:29N 43°43' E 007°25'0 0.0
2014-Aug-19 12:23N 43°43' E 007°25'0 0.0
2014-Aug-19 11:29N 43°43' E 007°25'0 0.0
2014-Aug-19 10:29N 43°43' E 007°25'0 0.0
2014-Aug-19 09:29N 43°43' E 007°25'0 0.0
2014-Aug-19 08:29N 43°43' E 007°25'0 0.0
2014-Aug-19 07:23N 43°43' E 007°25'0 0.0
2014-Aug-19 06:23N 43°43' E 007°25'0 0.0
2014-Aug-19 05:29N 43°43' E 007°25'0 0.0
2014-Aug-19 04:29N 43°43' E 007°25'0 0.0
2014-Aug-19 03:29N 43°43' E 007°25'0 0.0
2014-Aug-19 02:29N 43°43' E 007°25'0 0.0
2014-Aug-19 01:29N 43°43' E 007°25'0 0.0
2014-Aug-19 00:29N 43°43' E 007°25'0 0.0
2014-Aug-18 23:29N 43°43' E 007°25'0 0.0
2014-Aug-18 22:29N 43°43' E 007°25'0 0.0
2014-Aug-18 21:29N 43°43' E 007°25'0 0.0
2014-Aug-18 20:29N 43°43' E 007°25'0 0.0
2014-Aug-18 19:29N 43°43' E 007°25'0 0.0
2014-Aug-18 18:33N 43°43' E 007°25'4 0.6
2014-Aug-18 12:30N 43°45' E 007°29'4 3.9
2014-Aug-18 11:33N 43°43' E 007°25'0 0.0
2014-Aug-17 11:21N 43°43' E 007°25'0 0.0
2014-Aug-17 02:21N 43°43' E 007°25'0 0.0
2014-Aug-17 01:33N 43°43' E 007°25'0 0.0
2014-Aug-17 00:33N 43°43' E 007°25'0 0.0
2014-Aug-16 23:33N 43°43' E 007°25'0 0.0
2014-Aug-16 22:15N 43°43' E 007°25'0 0.0
2014-Aug-16 21:33N 43°43' E 007°25'0 0.0
2014-Aug-16 18:33N 43°43' E 007°25'0 0.0
2014-Aug-16 11:09N 43°43' E 007°25'0 0.0
2014-Aug-16 05:27N 43°43' E 007°25'0 0.0
2014-Aug-15 23:33N 43°43' E 007°25'0 0.0
2014-Aug-15 22:03N 43°43' E 007°25'0 0.0
2014-Aug-15 21:27N 43°43' E 007°25'0 0.0
2014-Aug-15 20:27N 43°43' E 007°25'0 0.0
2014-Aug-15 19:27N 43°43' E 007°25'0 0.0
2014-Aug-15 18:33N 43°43' E 007°25'0 0.0
2014-Aug-15 17:33N 43°43' E 007°25'0 0.0
2014-Aug-15 16:27N 43°43' E 007°25'0 0.0
2014-Aug-15 15:33N 43°43' E 007°25'0 0.0
2014-Aug-15 14:27N 43°43' E 007°25'0 0.0
2014-Aug-15 13:33N 43°43' E 007°25'0 0.0
2014-Aug-15 12:33N 43°43' E 007°25'0 0.0
2014-Aug-15 11:27N 43°43' E 007°25'0 0.0
2014-Aug-15 04:15N 43°43' E 007°25'0 0.0
2014-Aug-15 02:15N 43°43' E 007°25'0 0.0
2014-Aug-15 01:33N 43°43' E 007°25'0 0.0
2014-Aug-14 22:27N 43°43' E 007°25'0 0.0
2014-Aug-14 21:09N 43°43' E 007°25'0 0.0
2014-Aug-14 20:09N 43°43' E 007°25'0 0.0
2014-Aug-14 19:33N 43°43' E 007°25'0 0.0
2014-Aug-14 17:33N 43°43' E 007°25'0 0.0
2014-Aug-14 16:21N 43°43' E 007°25'0 0.0
2014-Aug-14 15:21N 43°43' E 007°25'0 0.0
2014-Aug-14 14:27N 43°43' E 007°25'0 0.0
2014-Aug-13 18:15N 43°43' E 007°25'0 0.0
2014-Aug-13 17:33N 43°43' E 007°25'0 0.0
2014-Aug-13 12:15N 43°43' E 007°25'0 0.0
2014-Aug-13 11:27N 43°43' E 007°25'0 0.0
2014-Aug-13 10:33N 43°43' E 007°25'0 0.0
2014-Aug-13 09:33N 43°43' E 007°25'0 0.0
2014-Aug-13 08:33N 43°43' E 007°25'0 0.0
2014-Aug-13 01:33N 43°43' E 007°25'0 0.0
2014-Aug-13 00:33N 43°43' E 007°25'0 0.0
2014-Aug-12 23:21N 43°43' E 007°25'0 0.0
2014-Aug-12 22:27N 43°43' E 007°25'0 0.0
2014-Aug-12 21:33N 43°43' E 007°25'0 0.0
2014-Aug-12 20:33N 43°43' E 007°25'0 0.0
2014-Aug-12 19:21N 43°43' E 007°25'0 0.0
2014-Aug-12 18:15N 43°43' E 007°25'0 0.0
2014-Aug-12 17:22N 43°43' E 007°25'4 3.6
2014-Aug-12 16:18N 43°42' E 007°20'0 0.0
2014-Aug-12 15:24N 43°42' E 007°20'0 0.0
2014-Aug-12 14:27N 43°42' E 007°20'0 0.0
2014-Aug-12 13:21N 43°42' E 007°20'  
Track history (hours):
 
Tides and Currents Weather Stations Pressure Air Temp Water Temp Dewpoint Dewpoint Depression Visibility Wind Speed Wind Dir Waves Ship Positions

Ilona

Last reported at 2014-Aug-21 01:33 UTC. Time now 2014-Aug-21 02:28 UTC.
Position N 43°43' E 007°25'.

Length 37 m.

Type: Pleasure craft. MMSI: 319864000.

Date/timePositionNaut miles runAvg speedWind from/ knotsBaromVisibWave heightAir tempDewpointWater temp
2014-Aug-21 01:33N 43°43' E 007°25'0 0.0
2014-Aug-21 00:31N 43°43' E 007°25'0 0.0
2014-Aug-20 23:32N 43°43' E 007°25'0 0.0
2014-Aug-20 22:33N 43°43' E 007°25'0 0.0
2014-Aug-20 21:28N 43°43' E 007°25'0 0.0
2014-Aug-20 20:06N 43°43' E 007°25'916.5
2014-Aug-20 19:34N 43°37' E 007°16'12 9.7
2014-Aug-20 18:22N 43°33' E 007°01'0 0.0
2014-Aug-20 17:25N 43°33' E 007°01'0 0.0
2014-Aug-20 16:31N 43°33' E 007°01'0 0.0
2014-Aug-20 15:22N 43°33' E 007°01'1 1.2
2014-Aug-20 14:33N 43°32' E 007°02'1 1.0
2014-Aug-20 13:33N 43°32' E 007°03'0 0.0
2014-Aug-20 12:33N 43°32' E 007°03'6 5.9
2014-Aug-20 11:33N 43°35' E 007°09'8 8.1
2014-Aug-20 10:33N 43°40' E 007°18'6 5.5
2014-Aug-20 09:29N 43°43' E 007°25'0 0.0
2014-Aug-20 08:23N 43°43' E 007°25'0 0.0
2014-Aug-20 07:23N 43°43' E 007°25'0 0.0
2014-Aug-20 06:17N 43°43' E 007°25'0 0.0
2014-Aug-20 05:23N 43°43' E 007°25'0 0.0
2014-Aug-20 04:29N 43°43' E 007°25'0 0.0
2014-Aug-20 03:29N 43°43' E 007°25'0 0.0
2014-Aug-20 02:29N 43°43' E 007°25'0 0.0
2014-Aug-20 01:29N 43°43' E 007°25'0 0.0
2014-Aug-20 00:29N 43°43' E 007°25'0 0.0
2014-Aug-19 23:29N 43°43' E 007°25'0 0.0
2014-Aug-19 22:29N 43°43' E 007°25'0 0.0
2014-Aug-19 21:29N 43°43' E 007°25'0 0.0
2014-Aug-19 20:29N 43°43' E 007°25'0 0.0
2014-Aug-19 19:29N 43°43' E 007°25'0 0.0
2014-Aug-19 18:23N 43°43' E 007°25'0 0.0
2014-Aug-19 17:29N 43°43' E 007°25'0 0.0
2014-Aug-19 16:29N 43°43' E 007°25'0 0.0
2014-Aug-19 15:17N 43°43' E 007°25'0 0.0
2014-Aug-19 14:23N 43°43' E 007°25'0 0.0
2014-Aug-19 13:29N 43°43' E 007°25'0 0.0
2014-Aug-19 12:23N 43°43' E 007°25'0 0.0
2014-Aug-19 11:29N 43°43' E 007°25'0 0.0
2014-Aug-19 10:29N 43°43' E 007°25'0 0.0
2014-Aug-19 09:29N 43°43' E 007°25'0 0.0
2014-Aug-19 08:29N 43°43' E 007°25'0 0.0
2014-Aug-19 07:23N 43°43' E 007°25'0 0.0
2014-Aug-19 06:23N 43°43' E 007°25'0 0.0
2014-Aug-19 05:29N 43°43' E 007°25'0 0.0
2014-Aug-19 04:29N 43°43' E 007°25'0 0.0
2014-Aug-19 03:29N 43°43' E 007°25'0 0.0
2014-Aug-19 02:29N 43°43' E 007°25'0 0.0
2014-Aug-19 01:29N 43°43' E 007°25'0 0.0
2014-Aug-19 00:29N 43°43' E 007°25'0 0.0
2014-Aug-18 23:29N 43°43' E 007°25'0 0.0
2014-Aug-18 22:29N 43°43' E 007°25'0 0.0
2014-Aug-18 21:29N 43°43' E 007°25'0 0.0
2014-Aug-18 20:29N 43°43' E 007°25'0 0.0
2014-Aug-18 19:29N 43°43' E 007°25'0 0.0
2014-Aug-18 18:33N 43°43' E 007°25'4 0.6
2014-Aug-18 12:30N 43°45' E 007°29'4 3.9
2014-Aug-18 11:33N 43°43' E 007°25'0 0.0
2014-Aug-17 11:21N 43°43' E 007°25'0 0.0
2014-Aug-17 02:21N 43°43' E 007°25'0 0.0
2014-Aug-17 01:33N 43°43' E 007°25'0 0.0
2014-Aug-17 00:33N 43°43' E 007°25'0 0.0
2014-Aug-16 23:33N 43°43' E 007°25'0 0.0
2014-Aug-16 22:15N 43°43' E 007°25'0 0.0
2014-Aug-16 21:33N 43°43' E 007°25'0 0.0
2014-Aug-16 18:33N 43°43' E 007°25'0 0.0
2014-Aug-16 11:09N 43°43' E 007°25'0 0.0
2014-Aug-16 05:27N 43°43' E 007°25'0 0.0
2014-Aug-15 23:33N 43°43' E 007°25'0 0.0
2014-Aug-15 22:03N 43°43' E 007°25'0 0.0
2014-Aug-15 21:27N 43°43' E 007°25'0 0.0
2014-Aug-15 20:27N 43°43' E 007°25'0 0.0
2014-Aug-15 19:27N 43°43' E 007°25'0 0.0
2014-Aug-15 18:33N 43°43' E 007°25'0 0.0
2014-Aug-15 17:33N 43°43' E 007°25'0 0.0
2014-Aug-15 16:27N 43°43' E 007°25'0 0.0
2014-Aug-15 15:33N 43°43' E 007°25'0 0.0
2014-Aug-15 14:27N 43°43' E 007°25'0 0.0
2014-Aug-15 13:33N 43°43' E 007°25'0 0.0
2014-Aug-15 12:33N 43°43' E 007°25'0 0.0
2014-Aug-15 11:27N 43°43' E 007°25'0 0.0
2014-Aug-15 04:15N 43°43' E 007°25'0 0.0
2014-Aug-15 02:15N 43°43' E 007°25'0 0.0
2014-Aug-15 01:33N 43°43' E 007°25'0 0.0
2014-Aug-14 22:27N 43°43' E 007°25'0 0.0
2014-Aug-14 21:09N 43°43' E 007°25'0 0.0
2014-Aug-14 20:09N 43°43' E 007°25'0 0.0
2014-Aug-14 19:33N 43°43' E 007°25'0 0.0
2014-Aug-14 17:33N 43°43' E 007°25'0 0.0
2014-Aug-14 16:21N 43°43' E 007°25'0 0.0
2014-Aug-14 15:21N 43°43' E 007°25'0 0.0
2014-Aug-14 14:27N 43°43' E 007°25'0 0.0
2014-Aug-13 18:15N 43°43' E 007°25'0 0.0
2014-Aug-13 17:33N 43°43' E 007°25'0 0.0
2014-Aug-13 12:15N 43°43' E 007°25'0 0.0
2014-Aug-13 11:27N 43°43' E 007°25'0 0.0
2014-Aug-13 10:33N 43°43' E 007°25'0 0.0
2014-Aug-13 09:33N 43°43' E 007°25'0 0.0
2014-Aug-13 08:33N 43°43' E 007°25'0 0.0
2014-Aug-13 01:33N 43°43' E 007°25'0 0.0
2014-Aug-13 00:33N 43°43' E 007°25'0 0.0
2014-Aug-12 23:21N 43°43' E 007°25'0 0.0
2014-Aug-12 22:27N 43°43' E 007°25'0 0.0
2014-Aug-12 21:33N 43°43' E 007°25'0 0.0
2014-Aug-12 20:33N 43°43' E 007°25'0 0.0
2014-Aug-12 19:21N 43°43' E 007°25'0 0.0
2014-Aug-12 18:15N 43°43' E 007°25'0 0.0
2014-Aug-12 17:22N 43°43' E 007°25'4 3.6
2014-Aug-12 16:18N 43°42' E 007°20'0 0.0
2014-Aug-12 15:24N 43°42' E 007°20'0 0.0
2014-Aug-12 14:27N 43°42' E 007°20'0 0.0
2014-Aug-12 13:21N 43°42' E 007°20'  

Dump ship's entire track history